<?xml version="1.0" encoding="UTF-8" standalone="no" ?>
<gpx xmlns="http://www.topografix.com/GPX/1/1" xmlns:xsi="http://www.w3.org/2001/XMLSchema-instance" xsi:schemaLocation="http://www.topografix.com/GPX/1/1 http://www.topografix.com/GPX/1/1/gpx.xsd" version="1.1" creator="VisuGPX - https://www.visugpx.com">
  <metadata>
    <name>Massieux 12</name>
    <desc><![CDATA[Idée de ballade d'hiver .....................................................
]]></desc>
  </metadata>
  <trk>
    <name><![CDATA[Massieu 12]]></name>
    <trkseg>
      <trkpt lat="45.43948" lon="5.5955">
        <ele>466</ele>
        <time>2016-10-22T17:33:47Z</time>
      </trkpt>
      <trkpt lat="45.43982" lon="5.59556">
        <ele>469</ele>
        <time>2016-10-22T17:35:47Z</time>
      </trkpt>
      <trkpt lat="45.44014" lon="5.59586">
        <ele>470</ele>
        <time>2016-10-22T17:37:47Z</time>
      </trkpt>
      <trkpt lat="45.44027" lon="5.59558">
        <ele>474</ele>
        <time>2016-10-22T17:39:47Z</time>
      </trkpt>
      <trkpt lat="45.44054" lon="5.59563">
        <ele>477</ele>
        <time>2016-10-22T17:41:47Z</time>
      </trkpt>
      <trkpt lat="45.44073" lon="5.59497">
        <ele>480</ele>
        <time>2016-10-22T17:43:47Z</time>
      </trkpt>
      <trkpt lat="45.44079" lon="5.59434">
        <ele>482</ele>
        <time>2016-10-22T17:45:47Z</time>
      </trkpt>
      <trkpt lat="45.44094" lon="5.59334">
        <ele>483</ele>
        <time>2016-10-22T17:47:47Z</time>
      </trkpt>
      <trkpt lat="45.44111" lon="5.59219">
        <ele>482</ele>
        <time>2016-10-22T17:49:47Z</time>
      </trkpt>
      <trkpt lat="45.44118" lon="5.59163">
        <ele>482</ele>
        <time>2016-10-22T17:51:47Z</time>
      </trkpt>
      <trkpt lat="45.4416" lon="5.59172">
        <ele>488</ele>
        <time>2016-10-22T17:53:47Z</time>
      </trkpt>
      <trkpt lat="45.44193" lon="5.59187">
        <ele>499</ele>
        <time>2016-10-22T17:55:47Z</time>
      </trkpt>
      <trkpt lat="45.44214" lon="5.59181">
        <ele>506</ele>
        <time>2016-10-22T17:57:47Z</time>
      </trkpt>
      <trkpt lat="45.44249" lon="5.59091">
        <ele>511</ele>
        <time>2016-10-22T17:59:47Z</time>
      </trkpt>
      <trkpt lat="45.44279" lon="5.58979">
        <ele>514</ele>
        <time>2016-10-22T18:01:47Z</time>
      </trkpt>
      <trkpt lat="45.44286" lon="5.58943">
        <ele>514</ele>
        <time>2016-10-22T18:03:47Z</time>
      </trkpt>
      <trkpt lat="45.44318" lon="5.58887">
        <ele>517</ele>
        <time>2016-10-22T18:05:47Z</time>
      </trkpt>
      <trkpt lat="45.44343" lon="5.58859">
        <ele>519</ele>
        <time>2016-10-22T18:07:47Z</time>
      </trkpt>
      <trkpt lat="45.44381" lon="5.58853">
        <ele>522</ele>
        <time>2016-10-22T18:09:47Z</time>
      </trkpt>
      <trkpt lat="45.44377" lon="5.58908">
        <ele>523</ele>
        <time>2016-10-22T18:11:47Z</time>
      </trkpt>
      <trkpt lat="45.4439" lon="5.58986">
        <ele>529</ele>
        <time>2016-10-22T18:13:47Z</time>
      </trkpt>
      <trkpt lat="45.4439" lon="5.5905">
        <ele>537</ele>
        <time>2016-10-22T18:15:47Z</time>
      </trkpt>
      <trkpt lat="45.44397" lon="5.59098">
        <ele>544</ele>
        <time>2016-10-22T18:17:47Z</time>
      </trkpt>
      <trkpt lat="45.4442" lon="5.59137">
        <ele>553</ele>
        <time>2016-10-22T18:19:47Z</time>
      </trkpt>
      <trkpt lat="45.44446" lon="5.59185">
        <ele>567</ele>
        <time>2016-10-22T18:21:47Z</time>
      </trkpt>
      <trkpt lat="45.44466" lon="5.59241">
        <ele>590</ele>
        <time>2016-10-22T18:23:47Z</time>
      </trkpt>
      <trkpt lat="45.44447" lon="5.59337">
        <ele>621</ele>
        <time>2016-10-22T18:25:47Z</time>
      </trkpt>
      <trkpt lat="45.44471" lon="5.5944">
        <ele>654</ele>
        <time>2016-10-22T18:27:47Z</time>
      </trkpt>
      <trkpt lat="45.44497" lon="5.59477">
        <ele>670</ele>
        <time>2016-10-22T18:29:47Z</time>
      </trkpt>
      <trkpt lat="45.44589" lon="5.59513">
        <ele>691</ele>
        <time>2016-10-22T18:31:47Z</time>
      </trkpt>
      <trkpt lat="45.44611" lon="5.59466">
        <ele>685</ele>
        <time>2016-10-22T18:33:47Z</time>
      </trkpt>
      <trkpt lat="45.44636" lon="5.5943">
        <ele>680</ele>
        <time>2016-10-22T18:35:47Z</time>
      </trkpt>
      <trkpt lat="45.4467" lon="5.59432">
        <ele>686</ele>
        <time>2016-10-22T18:37:47Z</time>
      </trkpt>
      <trkpt lat="45.44726" lon="5.59398">
        <ele>684</ele>
        <time>2016-10-22T18:39:47Z</time>
      </trkpt>
      <trkpt lat="45.44721" lon="5.59348">
        <ele>676</ele>
        <time>2016-10-22T18:41:47Z</time>
      </trkpt>
      <trkpt lat="45.44741" lon="5.59303">
        <ele>675</ele>
        <time>2016-10-22T18:43:47Z</time>
      </trkpt>
      <trkpt lat="45.44824" lon="5.59209">
        <ele>675</ele>
        <time>2016-10-22T18:45:47Z</time>
      </trkpt>
      <trkpt lat="45.44882" lon="5.59161">
        <ele>673</ele>
        <time>2016-10-22T18:47:47Z</time>
      </trkpt>
      <trkpt lat="45.44946" lon="5.59123">
        <ele>666</ele>
        <time>2016-10-22T18:49:47Z</time>
      </trkpt>
      <trkpt lat="45.45021" lon="5.59123">
        <ele>667</ele>
        <time>2016-10-22T18:51:47Z</time>
      </trkpt>
      <trkpt lat="45.45074" lon="5.59123">
        <ele>661</ele>
        <time>2016-10-22T18:53:47Z</time>
      </trkpt>
      <trkpt lat="45.45102" lon="5.59149">
        <ele>669</ele>
        <time>2016-10-22T18:55:47Z</time>
      </trkpt>
      <trkpt lat="45.45193" lon="5.59146">
        <ele>653</ele>
        <time>2016-10-22T18:57:47Z</time>
      </trkpt>
      <trkpt lat="45.45263" lon="5.59189">
        <ele>654</ele>
        <time>2016-10-22T18:59:47Z</time>
      </trkpt>
      <trkpt lat="45.45328" lon="5.5923">
        <ele>652</ele>
        <time>2016-10-22T19:01:47Z</time>
      </trkpt>
      <trkpt lat="45.45381" lon="5.59252">
        <ele>648</ele>
        <time>2016-10-22T19:03:47Z</time>
      </trkpt>
      <trkpt lat="45.45439" lon="5.59295">
        <ele>649</ele>
        <time>2016-10-22T19:05:47Z</time>
      </trkpt>
      <trkpt lat="45.45474" lon="5.5932">
        <ele>646</ele>
        <time>2016-10-22T19:07:47Z</time>
      </trkpt>
      <trkpt lat="45.45537" lon="5.5934">
        <ele>640</ele>
        <time>2016-10-22T19:09:47Z</time>
      </trkpt>
      <trkpt lat="45.45612" lon="5.59423">
        <ele>645</ele>
        <time>2016-10-22T19:11:47Z</time>
      </trkpt>
      <trkpt lat="45.45694" lon="5.59513">
        <ele>651</ele>
        <time>2016-10-22T19:13:47Z</time>
      </trkpt>
      <trkpt lat="45.45751" lon="5.59576">
        <ele>652</ele>
        <time>2016-10-22T19:15:47Z</time>
      </trkpt>
      <trkpt lat="45.45807" lon="5.59657">
        <ele>651</ele>
        <time>2016-10-22T19:17:47Z</time>
      </trkpt>
      <trkpt lat="45.45868" lon="5.59745">
        <ele>652</ele>
        <time>2016-10-22T19:19:47Z</time>
      </trkpt>
      <trkpt lat="45.4588" lon="5.59801">
        <ele>662</ele>
        <time>2016-10-22T19:21:47Z</time>
      </trkpt>
      <trkpt lat="45.45933" lon="5.59822">
        <ele>649</ele>
        <time>2016-10-22T19:23:47Z</time>
      </trkpt>
      <trkpt lat="45.45989" lon="5.599">
        <ele>648</ele>
        <time>2016-10-22T19:25:47Z</time>
      </trkpt>
      <trkpt lat="45.46073" lon="5.6002">
        <ele>641</ele>
        <time>2016-10-22T19:27:47Z</time>
      </trkpt>
      <trkpt lat="45.46141" lon="5.60084">
        <ele>624</ele>
        <time>2016-10-22T19:29:47Z</time>
      </trkpt>
      <trkpt lat="45.46204" lon="5.60161">
        <ele>618</ele>
        <time>2016-10-22T19:31:47Z</time>
      </trkpt>
      <trkpt lat="45.46228" lon="5.60194">
        <ele>613</ele>
        <time>2016-10-22T19:33:47Z</time>
      </trkpt>
      <trkpt lat="45.4629" lon="5.60262">
        <ele>601</ele>
        <time>2016-10-22T19:35:47Z</time>
      </trkpt>
      <trkpt lat="45.46342" lon="5.60288">
        <ele>583</ele>
        <time>2016-10-22T19:37:47Z</time>
      </trkpt>
      <trkpt lat="45.46379" lon="5.60335">
        <ele>578</ele>
        <time>2016-10-22T19:39:47Z</time>
      </trkpt>
      <trkpt lat="45.46467" lon="5.60378">
        <ele>559</ele>
        <time>2016-10-22T19:41:47Z</time>
      </trkpt>
      <trkpt lat="45.46538" lon="5.60312">
        <ele>546</ele>
        <time>2016-10-22T19:43:47Z</time>
      </trkpt>
      <trkpt lat="45.46606" lon="5.60226">
        <ele>545</ele>
        <time>2016-10-22T19:45:47Z</time>
      </trkpt>
      <trkpt lat="45.46645" lon="5.6034">
        <ele>547</ele>
        <time>2016-10-22T19:47:47Z</time>
      </trkpt>
      <trkpt lat="45.46657" lon="5.60468">
        <ele>550</ele>
        <time>2016-10-22T19:49:47Z</time>
      </trkpt>
      <trkpt lat="45.46664" lon="5.60578">
        <ele>554</ele>
        <time>2016-10-22T19:51:47Z</time>
      </trkpt>
      <trkpt lat="45.46681" lon="5.60687">
        <ele>563</ele>
        <time>2016-10-22T19:53:47Z</time>
      </trkpt>
      <trkpt lat="45.46719" lon="5.60775">
        <ele>567</ele>
        <time>2016-10-22T19:55:47Z</time>
      </trkpt>
      <trkpt lat="45.46761" lon="5.60872">
        <ele>573</ele>
        <time>2016-10-22T19:57:47Z</time>
      </trkpt>
      <trkpt lat="45.46816" lon="5.60973">
        <ele>577</ele>
        <time>2016-10-22T19:59:47Z</time>
      </trkpt>
      <trkpt lat="45.4685" lon="5.60932">
        <ele>576</ele>
        <time>2016-10-22T20:01:47Z</time>
      </trkpt>
      <trkpt lat="45.46898" lon="5.60912">
        <ele>576</ele>
        <time>2016-10-22T20:03:47Z</time>
      </trkpt>
      <trkpt lat="45.46937" lon="5.60919">
        <ele>578</ele>
        <time>2016-10-22T20:05:47Z</time>
      </trkpt>
      <trkpt lat="45.46974" lon="5.6093">
        <ele>580</ele>
        <time>2016-10-22T20:07:47Z</time>
      </trkpt>
      <trkpt lat="45.47008" lon="5.60906">
        <ele>580</ele>
        <time>2016-10-22T20:09:47Z</time>
      </trkpt>
      <trkpt lat="45.47054" lon="5.60839">
        <ele>581</ele>
        <time>2016-10-22T20:11:47Z</time>
      </trkpt>
      <trkpt lat="45.47059" lon="5.60777">
        <ele>578</ele>
        <time>2016-10-22T20:13:47Z</time>
      </trkpt>
      <trkpt lat="45.47078" lon="5.6076">
        <ele>581</ele>
        <time>2016-10-22T20:15:47Z</time>
      </trkpt>
      <trkpt lat="45.47074" lon="5.60719">
        <ele>577</ele>
        <time>2016-10-22T20:17:47Z</time>
      </trkpt>
      <trkpt lat="45.47104" lon="5.6073">
        <ele>579</ele>
        <time>2016-10-22T20:19:47Z</time>
      </trkpt>
      <trkpt lat="45.47143" lon="5.60726">
        <ele>578</ele>
        <time>2016-10-22T20:21:47Z</time>
      </trkpt>
      <trkpt lat="45.47173" lon="5.60713">
        <ele>579</ele>
        <time>2016-10-22T20:23:47Z</time>
      </trkpt>
      <trkpt lat="45.47232" lon="5.60745">
        <ele>584</ele>
        <time>2016-10-22T20:25:47Z</time>
      </trkpt>
      <trkpt lat="45.47284" lon="5.60758">
        <ele>588</ele>
        <time>2016-10-22T20:27:47Z</time>
      </trkpt>
      <trkpt lat="45.47333" lon="5.60745">
        <ele>595</ele>
        <time>2016-10-22T20:29:47Z</time>
      </trkpt>
      <trkpt lat="45.47337" lon="5.60674">
        <ele>604</ele>
        <time>2016-10-22T20:31:47Z</time>
      </trkpt>
      <trkpt lat="45.47351" lon="5.60631">
        <ele>608</ele>
        <time>2016-10-22T20:33:47Z</time>
      </trkpt>
      <trkpt lat="45.47375" lon="5.60636">
        <ele>611</ele>
        <time>2016-10-22T20:35:47Z</time>
      </trkpt>
      <trkpt lat="45.47409" lon="5.60666">
        <ele>612</ele>
        <time>2016-10-22T20:37:47Z</time>
      </trkpt>
      <trkpt lat="45.47451" lon="5.6064">
        <ele>621</ele>
        <time>2016-10-22T20:39:47Z</time>
      </trkpt>
      <trkpt lat="45.47497" lon="5.60621">
        <ele>632</ele>
        <time>2016-10-22T20:41:47Z</time>
      </trkpt>
      <trkpt lat="45.47528" lon="5.60627">
        <ele>635</ele>
        <time>2016-10-22T20:43:47Z</time>
      </trkpt>
      <trkpt lat="45.47561" lon="5.60554">
        <ele>647</ele>
        <time>2016-10-22T20:45:47Z</time>
      </trkpt>
      <trkpt lat="45.47585" lon="5.60498">
        <ele>656</ele>
        <time>2016-10-22T20:47:47Z</time>
      </trkpt>
      <trkpt lat="45.47609" lon="5.60436">
        <ele>667</ele>
        <time>2016-10-22T20:49:47Z</time>
      </trkpt>
      <trkpt lat="45.4762" lon="5.60391">
        <ele>672</ele>
        <time>2016-10-22T20:51:47Z</time>
      </trkpt>
      <trkpt lat="45.47612" lon="5.60363">
        <ele>673</ele>
        <time>2016-10-22T20:53:47Z</time>
      </trkpt>
      <trkpt lat="45.47631" lon="5.60282">
        <ele>678</ele>
        <time>2016-10-22T20:55:47Z</time>
      </trkpt>
      <trkpt lat="45.47641" lon="5.60243">
        <ele>680</ele>
        <time>2016-10-22T20:57:47Z</time>
      </trkpt>
      <trkpt lat="45.47631" lon="5.60181">
        <ele>682</ele>
        <time>2016-10-22T20:59:47Z</time>
      </trkpt>
      <trkpt lat="45.4759" lon="5.60129">
        <ele>685</ele>
        <time>2016-10-22T21:01:47Z</time>
      </trkpt>
      <trkpt lat="45.47522" lon="5.60061">
        <ele>685</ele>
        <time>2016-10-22T21:03:47Z</time>
      </trkpt>
      <trkpt lat="45.47456" lon="5.5999">
        <ele>689</ele>
        <time>2016-10-22T21:05:47Z</time>
      </trkpt>
      <trkpt lat="45.4743" lon="5.59992">
        <ele>686</ele>
        <time>2016-10-22T21:07:47Z</time>
      </trkpt>
      <trkpt lat="45.4736" lon="5.59906">
        <ele>689</ele>
        <time>2016-10-22T21:09:47Z</time>
      </trkpt>
      <trkpt lat="45.47328" lon="5.59859">
        <ele>690</ele>
        <time>2016-10-22T21:11:47Z</time>
      </trkpt>
      <trkpt lat="45.47307" lon="5.59812">
        <ele>691</ele>
        <time>2016-10-22T21:13:47Z</time>
      </trkpt>
      <trkpt lat="45.47325" lon="5.59769">
        <ele>692</ele>
        <time>2016-10-22T21:15:47Z</time>
      </trkpt>
      <trkpt lat="45.47372" lon="5.59739">
        <ele>699</ele>
        <time>2016-10-22T21:17:47Z</time>
      </trkpt>
      <trkpt lat="45.47394" lon="5.59724">
        <ele>703</ele>
        <time>2016-10-22T21:19:47Z</time>
      </trkpt>
      <trkpt lat="45.47421" lon="5.59683">
        <ele>709</ele>
        <time>2016-10-22T21:21:47Z</time>
      </trkpt>
      <trkpt lat="45.47396" lon="5.59614">
        <ele>710</ele>
        <time>2016-10-22T21:23:47Z</time>
      </trkpt>
      <trkpt lat="45.47363" lon="5.59552">
        <ele>711</ele>
        <time>2016-10-22T21:25:47Z</time>
      </trkpt>
      <trkpt lat="45.47316" lon="5.59492">
        <ele>711</ele>
        <time>2016-10-22T21:27:47Z</time>
      </trkpt>
      <trkpt lat="45.47289" lon="5.5943">
        <ele>708</ele>
        <time>2016-10-22T21:29:47Z</time>
      </trkpt>
      <trkpt lat="45.47283" lon="5.59402">
        <ele>707</ele>
        <time>2016-10-22T21:31:47Z</time>
      </trkpt>
      <trkpt lat="45.47292" lon="5.59316">
        <ele>703</ele>
        <time>2016-10-22T21:33:47Z</time>
      </trkpt>
      <trkpt lat="45.47278" lon="5.59239">
        <ele>695</ele>
        <time>2016-10-22T21:35:47Z</time>
      </trkpt>
      <trkpt lat="45.47268" lon="5.59144">
        <ele>686</ele>
        <time>2016-10-22T21:37:47Z</time>
      </trkpt>
      <trkpt lat="45.47256" lon="5.5908">
        <ele>680</ele>
        <time>2016-10-22T21:39:47Z</time>
      </trkpt>
      <trkpt lat="45.47259" lon="5.58988">
        <ele>679</ele>
        <time>2016-10-22T21:41:47Z</time>
      </trkpt>
      <trkpt lat="45.47217" lon="5.59028">
        <ele>680</ele>
        <time>2016-10-22T21:43:47Z</time>
      </trkpt>
      <trkpt lat="45.47175" lon="5.59108">
        <ele>678</ele>
        <time>2016-10-22T21:45:47Z</time>
      </trkpt>
      <trkpt lat="45.47134" lon="5.59127">
        <ele>677</ele>
        <time>2016-10-22T21:47:47Z</time>
      </trkpt>
      <trkpt lat="45.47053" lon="5.59136">
        <ele>673</ele>
        <time>2016-10-22T21:49:47Z</time>
      </trkpt>
      <trkpt lat="45.46988" lon="5.59136">
        <ele>667</ele>
        <time>2016-10-22T21:51:47Z</time>
      </trkpt>
      <trkpt lat="45.46937" lon="5.59177">
        <ele>660</ele>
        <time>2016-10-22T21:53:47Z</time>
      </trkpt>
      <trkpt lat="45.46883" lon="5.59202">
        <ele>655</ele>
        <time>2016-10-22T21:55:47Z</time>
      </trkpt>
      <trkpt lat="45.46836" lon="5.59243">
        <ele>648</ele>
        <time>2016-10-22T21:57:47Z</time>
      </trkpt>
      <trkpt lat="45.46815" lon="5.59196">
        <ele>648</ele>
        <time>2016-10-22T21:59:47Z</time>
      </trkpt>
      <trkpt lat="45.46788" lon="5.59151">
        <ele>647</ele>
        <time>2016-10-22T22:01:47Z</time>
      </trkpt>
      <trkpt lat="45.46732" lon="5.59099">
        <ele>643</ele>
        <time>2016-10-22T22:03:47Z</time>
      </trkpt>
      <trkpt lat="45.46687" lon="5.59052">
        <ele>642</ele>
        <time>2016-10-22T22:05:47Z</time>
      </trkpt>
      <trkpt lat="45.4666" lon="5.5902">
        <ele>641</ele>
        <time>2016-10-22T22:07:47Z</time>
      </trkpt>
      <trkpt lat="45.46642" lon="5.58953">
        <ele>637</ele>
        <time>2016-10-22T22:09:47Z</time>
      </trkpt>
      <trkpt lat="45.46651" lon="5.5888">
        <ele>634</ele>
        <time>2016-10-22T22:11:47Z</time>
      </trkpt>
      <trkpt lat="45.46621" lon="5.5888">
        <ele>628</ele>
        <time>2016-10-22T22:13:47Z</time>
      </trkpt>
      <trkpt lat="45.46579" lon="5.58908">
        <ele>622</ele>
        <time>2016-10-22T22:15:47Z</time>
      </trkpt>
      <trkpt lat="45.4652" lon="5.5893">
        <ele>614</ele>
        <time>2016-10-22T22:17:47Z</time>
      </trkpt>
      <trkpt lat="45.46437" lon="5.58943">
        <ele>601</ele>
        <time>2016-10-22T22:19:47Z</time>
      </trkpt>
      <trkpt lat="45.4637" lon="5.58938">
        <ele>590</ele>
        <time>2016-10-22T22:21:47Z</time>
      </trkpt>
      <trkpt lat="45.46305" lon="5.58928">
        <ele>579</ele>
        <time>2016-10-22T22:23:47Z</time>
      </trkpt>
      <trkpt lat="45.46264" lon="5.58923">
        <ele>572</ele>
        <time>2016-10-22T22:25:47Z</time>
      </trkpt>
      <trkpt lat="45.46215" lon="5.58945">
        <ele>563</ele>
        <time>2016-10-22T22:27:47Z</time>
      </trkpt>
      <trkpt lat="45.46154" lon="5.58953">
        <ele>551</ele>
        <time>2016-10-22T22:29:47Z</time>
      </trkpt>
      <trkpt lat="45.46108" lon="5.5893">
        <ele>547</ele>
        <time>2016-10-22T22:31:47Z</time>
      </trkpt>
      <trkpt lat="45.461" lon="5.58885">
        <ele>549</ele>
        <time>2016-10-22T22:33:47Z</time>
      </trkpt>
      <trkpt lat="45.46126" lon="5.58771">
        <ele>558</ele>
        <time>2016-10-22T22:35:47Z</time>
      </trkpt>
      <trkpt lat="45.4607" lon="5.58709">
        <ele>558</ele>
        <time>2016-10-22T22:37:47Z</time>
      </trkpt>
      <trkpt lat="45.46034" lon="5.58649">
        <ele>561</ele>
        <time>2016-10-22T22:39:47Z</time>
      </trkpt>
      <trkpt lat="45.46001" lon="5.58674">
        <ele>556</ele>
        <time>2016-10-22T22:41:47Z</time>
      </trkpt>
      <trkpt lat="45.45947" lon="5.58657">
        <ele>552</ele>
        <time>2016-10-22T22:43:47Z</time>
      </trkpt>
      <trkpt lat="45.45903" lon="5.58666">
        <ele>546</ele>
        <time>2016-10-22T22:45:47Z</time>
      </trkpt>
      <trkpt lat="45.4587" lon="5.58754">
        <ele>537</ele>
        <time>2016-10-22T22:47:47Z</time>
      </trkpt>
      <trkpt lat="45.45814" lon="5.58747">
        <ele>534</ele>
        <time>2016-10-22T22:49:47Z</time>
      </trkpt>
      <trkpt lat="45.4578" lon="5.58762">
        <ele>531</ele>
        <time>2016-10-22T22:51:47Z</time>
      </trkpt>
      <trkpt lat="45.45712" lon="5.58743">
        <ele>526</ele>
        <time>2016-10-22T22:53:47Z</time>
      </trkpt>
      <trkpt lat="45.45632" lon="5.58734">
        <ele>519</ele>
        <time>2016-10-22T22:55:47Z</time>
      </trkpt>
      <trkpt lat="45.45555" lon="5.5875">
        <ele>512</ele>
        <time>2016-10-22T22:57:47Z</time>
      </trkpt>
      <trkpt lat="45.45521" lon="5.5882">
        <ele>508</ele>
        <time>2016-10-22T22:59:47Z</time>
      </trkpt>
      <trkpt lat="45.45477" lon="5.58857">
        <ele>509</ele>
        <time>2016-10-22T23:01:47Z</time>
      </trkpt>
      <trkpt lat="45.45391" lon="5.58807">
        <ele>508</ele>
        <time>2016-10-22T23:03:47Z</time>
      </trkpt>
      <trkpt lat="45.4532" lon="5.58788">
        <ele>509</ele>
        <time>2016-10-22T23:05:47Z</time>
      </trkpt>
      <trkpt lat="45.45265" lon="5.58782">
        <ele>508</ele>
        <time>2016-10-22T23:07:47Z</time>
      </trkpt>
      <trkpt lat="45.452" lon="5.58775">
        <ele>512</ele>
        <time>2016-10-22T23:09:47Z</time>
      </trkpt>
      <trkpt lat="45.45152" lon="5.58756">
        <ele>512</ele>
        <time>2016-10-22T23:11:47Z</time>
      </trkpt>
      <trkpt lat="45.45083" lon="5.5875">
        <ele>512</ele>
        <time>2016-10-22T23:13:47Z</time>
      </trkpt>
      <trkpt lat="45.44962" lon="5.58765">
        <ele>523</ele>
        <time>2016-10-22T23:15:47Z</time>
      </trkpt>
      <trkpt lat="45.44864" lon="5.58752">
        <ele>527</ele>
        <time>2016-10-22T23:17:47Z</time>
      </trkpt>
      <trkpt lat="45.44768" lon="5.58745">
        <ele>534</ele>
        <time>2016-10-22T23:19:47Z</time>
      </trkpt>
      <trkpt lat="45.44709" lon="5.58724">
        <ele>534</ele>
        <time>2016-10-22T23:21:47Z</time>
      </trkpt>
      <trkpt lat="45.44649" lon="5.58769">
        <ele>538</ele>
        <time>2016-10-22T23:23:47Z</time>
      </trkpt>
      <trkpt lat="45.4461" lon="5.58788">
        <ele>535</ele>
        <time>2016-10-22T23:25:47Z</time>
      </trkpt>
      <trkpt lat="45.44541" lon="5.58801">
        <ele>532</ele>
        <time>2016-10-22T23:27:47Z</time>
      </trkpt>
      <trkpt lat="45.44476" lon="5.5884">
        <ele>530</ele>
        <time>2016-10-22T23:29:47Z</time>
      </trkpt>
      <trkpt lat="45.44411" lon="5.58863">
        <ele>525</ele>
        <time>2016-10-22T23:31:47Z</time>
      </trkpt>
      <trkpt lat="45.44391" lon="5.58857">
        <ele>523</ele>
        <time>2016-10-22T23:33:47Z</time>
      </trkpt>
      <trkpt lat="45.44361" lon="5.58855">
        <ele>521</ele>
        <time>2016-10-22T23:35:47Z</time>
      </trkpt>
      <trkpt lat="45.44334" lon="5.58876">
        <ele>519</ele>
        <time>2016-10-22T23:37:47Z</time>
      </trkpt>
      <trkpt lat="45.44307" lon="5.58903">
        <ele>516</ele>
        <time>2016-10-22T23:39:47Z</time>
      </trkpt>
      <trkpt lat="45.44294" lon="5.58935">
        <ele>515</ele>
        <time>2016-10-22T23:41:47Z</time>
      </trkpt>
      <trkpt lat="45.44283" lon="5.58963">
        <ele>514</ele>
        <time>2016-10-22T23:43:47Z</time>
      </trkpt>
      <trkpt lat="45.44265" lon="5.59015">
        <ele>512</ele>
        <time>2016-10-22T23:45:47Z</time>
      </trkpt>
      <trkpt lat="45.44255" lon="5.59061">
        <ele>512</ele>
        <time>2016-10-22T23:47:47Z</time>
      </trkpt>
      <trkpt lat="45.44242" lon="5.59126">
        <ele>511</ele>
        <time>2016-10-22T23:49:47Z</time>
      </trkpt>
      <trkpt lat="45.44228" lon="5.59164">
        <ele>508</ele>
        <time>2016-10-22T23:51:47Z</time>
      </trkpt>
      <trkpt lat="45.44205" lon="5.59187">
        <ele>504</ele>
        <time>2016-10-22T23:53:47Z</time>
      </trkpt>
      <trkpt lat="45.44176" lon="5.59185">
        <ele>493</ele>
        <time>2016-10-22T23:55:47Z</time>
      </trkpt>
      <trkpt lat="45.44146" lon="5.59163">
        <ele>486</ele>
        <time>2016-10-22T23:57:47Z</time>
      </trkpt>
      <trkpt lat="45.44124" lon="5.59161">
        <ele>483</ele>
        <time>2016-10-22T23:59:47Z</time>
      </trkpt>
      <trkpt lat="45.44116" lon="5.59188">
        <ele>483</ele>
        <time>2016-10-23T00:01:47Z</time>
      </trkpt>
      <trkpt lat="45.44109" lon="5.59241">
        <ele>482</ele>
        <time>2016-10-23T00:03:47Z</time>
      </trkpt>
      <trkpt lat="45.44097" lon="5.59311">
        <ele>482</ele>
        <time>2016-10-23T00:05:47Z</time>
      </trkpt>
      <trkpt lat="45.44089" lon="5.59381">
        <ele>483</ele>
        <time>2016-10-23T00:07:47Z</time>
      </trkpt>
      <trkpt lat="45.44082" lon="5.59413">
        <ele>483</ele>
        <time>2016-10-23T00:09:47Z</time>
      </trkpt>
      <trkpt lat="45.44069" lon="5.59514">
        <ele>480</ele>
        <time>2016-10-23T00:11:47Z</time>
      </trkpt>
      <trkpt lat="45.44059" lon="5.59546">
        <ele>478</ele>
        <time>2016-10-23T00:13:47Z</time>
      </trkpt>
      <trkpt lat="45.44042" lon="5.5956">
        <ele>476</ele>
        <time>2016-10-23T00:15:47Z</time>
      </trkpt>
      <trkpt lat="45.4402" lon="5.59575">
        <ele>471</ele>
        <time>2016-10-23T00:17:47Z</time>
      </trkpt>
      <trkpt lat="45.44015" lon="5.59594">
        <ele>470</ele>
        <time>2016-10-23T00:19:47Z</time>
      </trkpt>
      <trkpt lat="45.43998" lon="5.59579">
        <ele>467</ele>
        <time>2016-10-23T00:21:47Z</time>
      </trkpt>
      <trkpt lat="45.43977" lon="5.59548">
        <ele>469</ele>
        <time>2016-10-23T00:23:47Z</time>
      </trkpt>
    </trkseg>
  </trk>
</gpx>